CDT,Max TemperatureF,Mean TemperatureF,Min TemperatureF,Max Dew PointF,MeanDew PointF,Min DewpointF,Max Humidity, Mean Humidity, Min Humidity, Max Sea Level PressureIn, Mean Sea Level PressureIn, Min Sea Level PressureIn, Max VisibilityMiles, Mean VisibilityMiles, Min VisibilityMiles, Max Wind SpeedMPH, Mean Wind SpeedMPH, Max Gust SpeedMPH,PrecipitationIn, CloudCover, Events, WindDirDegrees
2013-10-1,78,65,51,50,44,35,89,54,25,29.99,29.89,29.72,10,10,9,17,8,21,0.00,0,,59
2013-10-2,81,65,49,60,54,46,93,71,47,29.90,29.83,29.76,10,10,6,13,3,21,0.00,1,,88
2013-10-3,72,65,57,63,56,45,100,81,56,29.77,29.72,29.66,10,8,2,21,11,26,0.00,7,,55
2013-10-4,61,50,39,58,48,27,97,79,46,30.07,29.75,29.60,10,6,0,33,15,48,T,5,Fog-Rain,315
2013-10-5,52,45,37,30,27,25,70,54,38,30.11,30.08,30.04,10,10,9,34,19,45,0.00,5,,294
2013-10-6,70,55,39,33,30,27,63,45,23,30.16,30.10,30.06,10,10,10,28,16,40,0.00,0,,313
2013-10-7,82,60,37,41,37,34,89,51,19,30.16,30.05,29.90,10,10,10,18,9,23,0.00,0,,222
2013-10-8,84,66,47,40,36,30,74,39,14,29.87,29.77,29.68,10,10,7,22,14,38,0.00,1,,173
2013-10-9,78,64,49,44,41,38,71,46,28,29.84,29.78,29.71,10,10,10,15,10,28,0.00,0,,151
2013-10-10,86,66,46,55,47,41,94,61,21,29.83,29.71,29.51,10,8,2,40,11,52,0.36,2,Rain-Thunderstorm,159
2013-10-11,65,56,47,52,42,38,89,61,42,30.02,29.72,29.51,10,10,10,28,17,39,0.00,0,,265
2013-10-12,60,52,44,40,35,29,73,56,32,30.27,30.18,30.03,10,10,10,13,7,,0.00,5,,342
2013-10-13,67,54,40,48,37,32,72,53,28,30.35,30.21,30.08,10,10,8,26,12,34,0.00,4,Thunderstorm,139
2013-10-14,74,58,42,60,50,33,97,77,38,30.06,29.86,29.60,10,8,2,34,16,44,0.18,6,Rain-Thunderstorm,209
2013-10-15,51,41,31,33,31,29,85,63,46,30.26,30.16,30.02,10,10,10,29,20,37,0.00,2,,314
2013-10-16,58,44,29,33,29,26,92,64,34,30.26,30.13,30.00,10,10,8,12,7,16,0.00,0,,260
2013-10-17,57,44,30,34,30,27,89,65,40,30.16,30.07,29.99,10,10,9,22,10,26,0.00,1,,319
2013-10-18,52,41,30,36,30,25,96,75,38,30.20,30.16,30.09,10,8,1,17,6,25,0.04,6,Snow,294
2013-10-19,68,48,28,34,28,25,89,57,22,30.12,29.99,29.88,10,10,10,20,10,24,0.00,0,,261
2013-10-20,62,48,33,37,33,30,85,63,35,30.12,29.92,29.80,10,10,10,25,11,30,0.00,2,,320
2013-10-21,64,47,29,35,32,28,96,63,30,30.18,30.10,30.01,10,10,9,18,8,26,0.00,3,,276
2013-10-22,67,54,40,38,37,35,71,54,34,30.12,30.06,30.00,10,10,10,20,9,29,0.00,2,,313
2013-10-23,71,52,33,40,35,31,89,61,28,30.26,30.11,30.03,10,10,10,21,6,29,0.00,0,,13
2013-10-24,49,41,32,36,34,30,89,76,61,30.44,30.37,30.26,10,10,10,8,3,,0.00,5,,164
2013-10-25,64,49,33,39,34,29,89,66,41,30.39,30.23,30.07,10,10,10,20,8,30,0.00,0,,201
2013-10-26,63,49,34,37,31,26,92,57,26,30.33,30.22,30.09,10,10,9,16,6,,0.00,0,,296
2013-10-27,79,59,38,38,33,28,76,47,15,30.13,29.92,29.77,10,10,10,18,8,26,0.00,0,,219
2013-10-28,57,48,38,39,35,30,100,73,45,30.13,30.04,29.81,10,8,2,22,14,23,T,5,,50
2013-10-29,40,39,37,38,37,36,100,94,89,30.10,30.04,29.99,10,4,1,14,11,,0.03,8,Rain,4
2013-10-30,54,43,31,39,36,34,100,87,57,30.04,29.92,29.81,10,6,1,10,4,,0.00,6,,330
2013-10-31,63,47,30,35,30,26,96,60,25,29.81,29.75,29.66,10,9,5,26,11,39,T,1,Snow,282